Terminal Aerodrome Forecast
Issued by NWS

Home | Current Version | Previous Version | Text Only | Print | Product List | Glossary On
Versions: 1 2 3 4 5 6 7 8 9 10 11 12 13 14 15 16 17 18 19 20 21 22 23 24 25 26 27 28 29
977
FTUS41 KOKX 251305 AAA
TAFSWF
TAF AMD
KSWF 251305Z 2513/2618 26008KT P6SM FEW080
     FM251500 26010KT P6SM SCT070
      TEMPO 2519/2523 4SM TSRA BKN040CB
     FM252300 28005KT P6SM BKN090 BKN250 PROB30 2523/2601 4SM TSRA
      BKN040CB
     FM260100 VRB04KT P6SM SCT100 BKN250
     FM260700 VRB03KT 5SM BR SCT250
     FM261300 30010KT P6SM SCT250
      AMD NOT SKED=

USA.gov is the U.S. government's official web portal to all federal, state and local government web resources and services.